sensor_id;sensor_type;location;lat;lon;timestamp;pressure;altitude;pressure_sealevel;temperature;humidity
77889;BME280;67082;41.704;44.768;2023-06-26T00:00:22;95272.00;;;20.30;62.23
77889;BME280;67082;41.704;44.768;2023-06-26T00:03:10;95273.53;;;20.31;62.10
77889;BME280;67082;41.704;44.768;2023-06-26T00:05:42;95261.78;;;20.27;62.18
77889;BME280;67082;41.704;44.768;2023-06-26T00:08:10;95264.38;;;20.25;62.39
77889;BME280;67082;41.704;44.768;2023-06-26T00:10:38;95270.28;;;20.21;62.43
77889;BME280;67082;41.704;44.768;2023-06-26T00:13:07;95273.13;;;20.21;62.72
77889;BME280;67082;41.704;44.768;2023-06-26T00:15:35;95267.00;;;20.17;62.93
77889;BME280;67082;41.704;44.768;2023-06-26T00:18:03;95263.00;;;20.07;63.01
77889;BME280;67082;41.704;44.768;2023-06-26T00:20:34;95270.88;;;20.14;63.03
77889;BME280;67082;41.704;44.768;2023-06-26T00:23:03;95263.19;;;20.15;62.75
77889;BME280;67082;41.704;44.768;2023-06-26T00:28:38;95266.84;;;20.04;63.57
77889;BME280;67082;41.704;44.768;2023-06-26T00:31:06;95263.78;;;20.02;63.98
77889;BME280;67082;41.704;44.768;2023-06-26T00:33:34;95269.94;;;20.01;63.75
77889;BME280;67082;41.704;44.768;2023-06-26T00:36:03;95266.34;;;20.00;64.12
77889;BME280;67082;41.704;44.768;2023-06-26T00:38:31;95261.00;;;19.97;63.79
77889;BME280;67082;41.704;44.768;2023-06-26T00:40:59;95254.44;;;19.89;64.30
77889;BME280;67082;41.704;44.768;2023-06-26T00:43:29;95263.06;;;19.96;64.13
77889;BME280;67082;41.704;44.768;2023-06-26T00:45:57;95253.09;;;19.95;64.48
77889;BME280;67082;41.704;44.768;2023-06-26T00:48:26;95250.53;;;19.97;64.33
77889;BME280;67082;41.704;44.768;2023-06-26T00:50:54;95250.75;;;19.99;65.23
77889;BME280;67082;41.704;44.768;2023-06-26T00:53:22;95250.84;;;19.88;65.72
77889;BME280;67082;41.704;44.768;2023-06-26T00:55:52;95250.63;;;19.86;65.49
77889;BME280;67082;41.704;44.768;2023-06-26T00:58:23;95242.41;;;19.88;65.73
77889;BME280;67082;41.704;44.768;2023-06-26T01:00:53;95247.03;;;19.86;65.49
77889;BME280;67082;41.704;44.768;2023-06-26T01:03:23;95243.47;;;19.85;65.69
77889;BME280;67082;41.704;44.768;2023-06-26T01:05:52;95239.66;;;19.83;65.64
77889;BME280;67082;41.704;44.768;2023-06-26T01:08:22;95244.75;;;19.84;65.48
77889;BME280;67082;41.704;44.768;2023-06-26T01:10:52;95244.75;;;19.84;65.66
77889;BME280;67082;41.704;44.768;2023-06-26T01:13:20;95247.31;;;19.82;65.49
77889;BME280;67082;41.704;44.768;2023-06-26T01:15:49;95237.34;;;19.81;65.98
77889;BME280;67082;41.704;44.768;2023-06-26T01:18:20;95239.16;;;19.79;66.07
77889;BME280;67082;41.704;44.768;2023-06-26T01:20:48;95234.31;;;19.79;66.70
77889;BME280;67082;41.704;44.768;2023-06-26T01:23:21;95240.97;;;19.76;66.45
77889;BME280;67082;41.704;44.768;2023-06-26T01:26:24;95237.94;;;19.74;67.10
77889;BME280;67082;41.704;44.768;2023-06-26T01:28:56;95234.59;;;19.76;67.20
77889;BME280;67082;41.704;44.768;2023-06-26T01:31:27;95237.22;;;19.68;66.96
77889;BME280;67082;41.704;44.768;2023-06-26T01:33:58;95235.13;;;19.74;66.08
77889;BME280;67082;41.704;44.768;2023-06-26T01:36:28;95235.84;;;19.80;66.18
77889;BME280;67082;41.704;44.768;2023-06-26T01:38:56;95231.97;;;19.83;66.15
77889;BME280;67082;41.704;44.768;2023-06-26T01:41:25;95240.41;;;19.83;65.52
77889;BME280;67082;41.704;44.768;2023-06-26T01:46:49;95239.84;;;20.25;64.88
77889;BME280;67082;41.704;44.768;2023-06-26T01:57:52;95242.97;;;21.49;60.86
77889;BME280;67082;41.704;44.768;2023-06-26T02:00:23;95234.41;;;21.92;59.73
77889;BME280;67082;41.704;44.768;2023-06-26T02:02:53;95238.59;;;22.48;57.98
77889;BME280;67082;41.704;44.768;2023-06-26T02:05:21;95234.06;;;22.97;56.44
77889;BME280;67082;41.704;44.768;2023-06-26T02:07:51;95236.88;;;23.36;55.27
77889;BME280;67082;41.704;44.768;2023-06-26T02:10:20;95230.69;;;23.71;54.49
77889;BME280;67082;41.704;44.768;2023-06-26T02:12:48;95237.75;;;23.91;54.24
77889;BME280;67082;41.704;44.768;2023-06-26T02:15:16;95238.50;;;24.12;54.05
77889;BME280;67082;41.704;44.768;2023-06-26T02:17:46;95237.59;;;24.37;53.32
77889;BME280;67082;41.704;44.768;2023-06-26T02:20:16;95238.56;;;24.60;51.91
77889;BME280;67082;41.704;44.768;2023-06-26T02:22:45;95232.97;;;24.96;50.13
77889;BME280;67082;41.704;44.768;2023-06-26T02:25:14;95236.09;;;25.41;49.36
77889;BME280;67082;41.704;44.768;2023-06-26T02:27:45;95239.59;;;25.69;48.73
77889;BME280;67082;41.704;44.768;2023-06-26T02:30:13;95223.63;;;25.94;48.51
77889;BME280;67082;41.704;44.768;2023-06-26T02:32:43;95227.59;;;25.99;47.91
77889;BME280;67082;41.704;44.768;2023-06-26T02:35:11;95222.53;;;26.12;47.39
77889;BME280;67082;41.704;44.768;2023-06-26T02:37:44;95224.25;;;26.30;46.96
77889;BME280;67082;41.704;44.768;2023-06-26T02:40:13;95220.66;;;26.60;46.10
77889;BME280;67082;41.704;44.768;2023-06-26T02:42:42;95218.59;;;26.68;45.80
77889;BME280;67082;41.704;44.768;2023-06-26T02:45:10;95221.22;;;26.88;44.84
77889;BME280;67082;41.704;44.768;2023-06-26T02:47:38;95214.59;;;26.78;45.38
77889;BME280;67082;41.704;44.768;2023-06-26T02:50:10;95211.59;;;26.76;45.32
77889;BME280;67082;41.704;44.768;2023-06-26T02:53:04;95211.56;;;26.46;45.78
77889;BME280;67082;41.704;44.768;2023-06-26T02:55:34;95212.16;;;26.60;45.86
77889;BME280;67082;41.704;44.768;2023-06-26T02:58:03;95202.66;;;26.42;46.03
77889;BME280;67082;41.704;44.768;2023-06-26T03:00:31;95194.34;;;26.29;45.83
77889;BME280;67082;41.704;44.768;2023-06-26T03:03:03;95197.72;;;26.20;46.74
77889;BME280;67082;41.704;44.768;2023-06-26T03:05:31;95201.69;;;26.10;46.61
77889;BME280;67082;41.704;44.768;2023-06-26T03:08:02;95201.13;;;26.04;47.35
77889;BME280;67082;41.704;44.768;2023-06-26T03:10:30;95200.09;;;25.86;47.59
77889;BME280;67082;41.704;44.768;2023-06-26T03:13:00;95201.81;;;25.82;47.70
77889;BME280;67082;41.704;44.768;2023-06-26T03:15:27;95204.13;;;25.98;47.89
77889;BME280;67082;41.704;44.768;2023-06-26T03:17:56;95197.88;;;26.00;48.27
77889;BME280;67082;41.704;44.768;2023-06-26T03:20:27;95197.69;;;25.90;47.99
77889;BME280;67082;41.704;44.768;2023-06-26T03:22:58;95193.53;;;25.91;47.67
77889;BME280;67082;41.704;44.768;2023-06-26T03:25:26;95190.47;;;25.89;47.90
77889;BME280;67082;41.704;44.768;2023-06-26T03:28:11;95185.00;;;25.91;48.42
77889;BME280;67082;41.704;44.768;2023-06-26T03:30:39;95179.16;;;26.12;48.21
77889;BME280;67082;41.704;44.768;2023-06-26T03:33:26;95189.31;;;25.85;48.23
77889;BME280;67082;41.704;44.768;2023-06-26T03:35:56;95187.47;;;25.95;48.70
77889;BME280;67082;41.704;44.768;2023-06-26T03:38:29;95187.28;;;26.00;48.17
77889;BME280;67082;41.704;44.768;2023-06-26T03:40:59;95184.56;;;25.87;48.93
77889;BME280;67082;41.704;44.768;2023-06-26T03:43:27;95186.91;;;25.96;48.84
77889;BME280;67082;41.704;44.768;2023-06-26T03:46:19;95182.47;;;25.80;49.29
77889;BME280;67082;41.704;44.768;2023-06-26T03:48:47;95183.50;;;25.90;49.11
77889;BME280;67082;41.704;44.768;2023-06-26T03:51:16;95188.16;;;25.80;48.90
77889;BME280;67082;41.704;44.768;2023-06-26T03:53:44;95188.59;;;25.99;48.95
77889;BME280;67082;41.704;44.768;2023-06-26T03:56:12;95183.50;;;25.98;48.48
77889;BME280;67082;41.704;44.768;2023-06-26T03:58:43;95183.63;;;25.77;49.33
77889;BME280;67082;41.704;44.768;2023-06-26T04:01:11;95176.81;;;25.80;48.98
77889;BME280;67082;41.704;44.768;2023-06-26T04:03:39;95179.34;;;25.99;48.65
77889;BME280;67082;41.704;44.768;2023-06-26T04:06:07;95177.44;;;26.01;47.89
77889;BME280;67082;41.704;44.768;2023-06-26T04:08:35;95171.41;;;26.05;48.03
77889;BME280;67082;41.704;44.768;2023-06-26T04:11:04;95182.56;;;26.03;48.16
77889;BME280;67082;41.704;44.768;2023-06-26T04:13:33;95179.53;;;26.08;49.18
77889;BME280;67082;41.704;44.768;2023-06-26T04:16:01;95173.84;;;26.08;48.31
77889;BME280;67082;41.704;44.768;2023-06-26T04:18:29;95169.28;;;26.05;48.27
77889;BME280;67082;41.704;44.768;2023-06-26T04:21:08;95170.81;;;26.14;49.06
77889;BME280;67082;41.704;44.768;2023-06-26T04:23:40;95178.78;;;26.30;48.47
77889;BME280;67082;41.704;44.768;2023-06-26T04:26:09;95173.28;;;26.25;48.36
77889;BME280;67082;41.704;44.768;2023-06-26T04:28:43;95170.66;;;26.19;48.48
77889;BME280;67082;41.704;44.768;2023-06-26T04:31:11;95164.59;;;26.23;48.53
77889;BME280;67082;41.704;44.768;2023-06-26T04:33:45;95167.81;;;26.34;48.06
77889;BME280;67082;41.704;44.768;2023-06-26T04:36:13;95166.28;;;26.48;48.35
77889;BME280;67082;41.704;44.768;2023-06-26T04:38:41;95160.22;;;26.52;48.03
77889;BME280;67082;41.704;44.768;2023-06-26T04:41:09;95152.06;;;26.48;48.12
77889;BME280;67082;41.704;44.768;2023-06-26T04:43:37;95152.84;;;26.41;48.21
77889;BME280;67082;41.704;44.768;2023-06-26T04:46:06;95155.47;;;26.39;48.79
77889;BME280;67082;41.704;44.768;2023-06-26T04:48:34;95152.84;;;26.41;48.68
77889;BME280;67082;41.704;44.768;2023-06-26T04:51:02;95148.84;;;26.37;49.48
77889;BME280;67082;41.704;44.768;2023-06-26T04:53:31;95156.63;;;26.36;49.54
77889;BME280;67082;41.704;44.768;2023-06-26T04:56:00;95146.59;;;26.28;48.79
77889;BME280;67082;41.704;44.768;2023-06-26T04:58:28;95150.78;;;26.34;48.06
77889;BME280;67082;41.704;44.768;2023-06-26T05:00:56;95145.44;;;26.38;48.14
77889;BME280;67082;41.704;44.768;2023-06-26T05:03:26;95153.97;;;26.38;47.96
77889;BME280;67082;41.704;44.768;2023-06-26T05:05:55;95149.06;;;26.31;47.64
77889;BME280;67082;41.704;44.768;2023-06-26T05:08:25;95149.06;;;26.31;46.81
77889;BME280;67082;41.704;44.768;2023-06-26T05:10:56;95145.47;;;26.23;47.52
77889;BME280;67082;41.704;44.768;2023-06-26T05:13:26;95143.38;;;26.16;46.96
77889;BME280;67082;41.704;44.768;2023-06-26T05:15:54;95146.78;;;26.15;47.43
77889;BME280;67082;41.704;44.768;2023-06-26T05:18:23;95146.97;;;26.17;47.11
77889;BME280;67082;41.704;44.768;2023-06-26T05:20:51;95143.75;;;26.13;47.37
77889;BME280;67082;41.704;44.768;2023-06-26T05:23:19;95142.06;;;26.17;47.66
77889;BME280;67082;41.704;44.768;2023-06-26T05:25:49;95140.53;;;26.16;47.25
77889;BME280;67082;41.704;44.768;2023-06-26T05:28:18;95128.41;;;26.16;47.57
77889;BME280;67082;41.704;44.768;2023-06-26T05:30:46;95131.06;;;26.14;48.04
77889;BME280;67082;41.704;44.768;2023-06-26T05:33:17;95123.88;;;26.20;48.45
77889;BME280;67082;41.704;44.768;2023-06-26T05:35:46;95116.09;;;26.28;48.18
77889;BME280;67082;41.704;44.768;2023-06-26T05:38:16;95116.84;;;26.29;48.44
77889;BME280;67082;41.704;44.768;2023-06-26T05:40:45;95129.53;;;26.13;48.17
77889;BME280;67082;41.704;44.768;2023-06-26T05:43:17;95110.25;;;26.11;48.62
77889;BME280;67082;41.704;44.768;2023-06-26T05:45:56;95114.78;;;26.07;48.12
77889;BME280;67082;41.704;44.768;2023-06-26T05:48:25;95114.22;;;26.01;48.58
77889;BME280;67082;41.704;44.768;2023-06-26T05:50:54;95103.63;;;26.01;48.40
77889;BME280;67082;41.704;44.768;2023-06-26T05:53:22;95107.59;;;26.06;48.98
77889;BME280;67082;41.704;44.768;2023-06-26T05:55:50;95101.72;;;26.04;49.29
77889;BME280;67082;41.704;44.768;2023-06-26T05:58:20;95103.41;;;26.07;48.67
77889;BME280;67082;41.704;44.768;2023-06-26T06:00:50;95107.97;;;26.02;48.15
77889;BME280;67082;41.704;44.768;2023-06-26T06:03:19;95095.09;;;25.94;48.36
77889;BME280;67082;41.704;44.768;2023-06-26T06:05:47;95096.44;;;26.00;48.67
77889;BME280;67082;41.704;44.768;2023-06-26T06:08:15;95108.75;;;26.03;48.81
77889;BME280;67082;41.704;44.768;2023-06-26T06:10:43;95096.44;;;26.00;48.96
77889;BME280;67082;41.704;44.768;2023-06-26T06:13:11;95089.44;;;26.01;48.82
77889;BME280;67082;41.704;44.768;2023-06-26T06:15:40;95091.31;;;25.99;48.51
77889;BME280;67082;41.704;44.768;2023-06-26T06:18:08;95093.38;;;26.06;48.79
77889;BME280;67082;41.704;44.768;2023-06-26T06:20:38;95087.34;;;25.94;48.08
77889;BME280;67082;41.704;44.768;2023-06-26T06:23:06;95084.09;;;26.05;48.17
77889;BME280;67082;41.704;44.768;2023-06-26T06:25:34;95080.31;;;26.10;48.55
77889;BME280;67082;41.704;44.768;2023-06-26T06:28:04;95070.50;;;26.11;48.39
77889;BME280;67082;41.704;44.768;2023-06-26T06:30:34;95079.19;;;26.13;48.35
77889;BME280;67082;41.704;44.768;2023-06-26T06:33:14;95075.19;;;26.16;47.92
77889;BME280;67082;41.704;44.768;2023-06-26T06:35:43;95081.47;;;26.15;47.76
77889;BME280;67082;41.704;44.768;2023-06-26T06:38:11;95069.72;;;26.18;47.66
77889;BME280;67082;41.704;44.768;2023-06-26T06:40:39;95070.28;;;26.24;47.76
77889;BME280;67082;41.704;44.768;2023-06-26T06:43:08;95068.94;;;26.25;47.49
77889;BME280;67082;41.704;44.768;2023-06-26T06:45:36;95065.94;;;26.23;46.32
77889;BME280;67082;41.704;44.768;2023-06-26T06:48:05;95062.50;;;26.32;47.14
77889;BME280;67082;41.704;44.768;2023-06-26T06:50:34;95068.56;;;26.29;46.61
77889;BME280;67082;41.704;44.768;2023-06-26T06:53:03;95067.63;;;26.26;45.30
77889;BME280;67082;41.704;44.768;2023-06-26T06:55:31;95064.59;;;26.24;45.90
77889;BME280;67082;41.704;44.768;2023-06-26T06:57:59;95061.16;;;26.33;45.40
77889;BME280;67082;41.704;44.768;2023-06-26T07:00:30;95067.78;;;26.36;45.39
77889;BME280;67082;41.704;44.768;2023-06-26T07:03:00;95054.34;;;26.44;45.30
77889;BME280;67082;41.704;44.768;2023-06-26T07:05:28;95050.00;;;26.43;45.22
77889;BME280;67082;41.704;44.768;2023-06-26T07:07:56;95056.78;;;26.47;44.58
77889;BME280;67082;41.704;44.768;2023-06-26T07:10:29;95047.88;;;26.51;45.20
77889;BME280;67082;41.704;44.768;2023-06-26T07:12:57;95050.34;;;26.54;45.14
77889;BME280;67082;41.704;44.768;2023-06-26T07:15:25;95043.53;;;26.50;44.80
77889;BME280;67082;41.704;44.768;2023-06-26T07:17:56;95042.75;;;26.49;44.23
77889;BME280;67082;41.704;44.768;2023-06-26T07:20:25;95033.47;;;26.56;44.94
77889;BME280;67082;41.704;44.768;2023-06-26T07:22:53;95037.84;;;26.57;44.07
77889;BME280;67082;41.704;44.768;2023-06-26T07:25:21;95025.31;;;26.60;44.05
77889;BME280;67082;41.704;44.768;2023-06-26T07:27:49;95030.06;;;26.65;44.06
77889;BME280;67082;41.704;44.768;2023-06-26T07:30:18;95027.94;;;26.73;43.89
77889;BME280;67082;41.704;44.768;2023-06-26T07:32:46;95030.97;;;26.75;43.89
77889;BME280;67082;41.704;44.768;2023-06-26T07:35:15;95021.09;;;26.76;43.33
77889;BME280;67082;41.704;44.768;2023-06-26T07:37:43;95015.22;;;26.74;43.13
77889;BME280;67082;41.704;44.768;2023-06-26T07:40:11;95015.78;;;26.80;43.45
77889;BME280;67082;41.704;44.768;2023-06-26T07:42:40;95005.72;;;26.79;42.66
77889;BME280;67082;41.704;44.768;2023-06-26T07:45:09;95009.09;;;26.85;43.36
77889;BME280;67082;41.704;44.768;2023-06-26T07:47:40;95006.25;;;26.85;42.88
77889;BME280;67082;41.704;44.768;2023-06-26T07:50:09;95007.56;;;26.92;41.90
77889;BME280;67082;41.704;44.768;2023-06-26T07:52:37;94996.75;;;26.90;42.32
77889;BME280;67082;41.704;44.768;2023-06-26T07:55:06;95000.75;;;26.95;41.84
77889;BME280;67082;41.704;44.768;2023-06-26T07:57:34;94995.97;;;26.97;41.56
77889;BME280;67082;41.704;44.768;2023-06-26T08:00:03;94993.13;;;26.97;41.34
77889;BME280;67082;41.704;44.768;2023-06-26T08:02:41;94994.44;;;27.04;41.05
77889;BME280;67082;41.704;44.768;2023-06-26T08:05:11;94996.69;;;27.05;40.64
77889;BME280;67082;41.704;44.768;2023-06-26T08:07:40;95000.06;;;27.11;41.32
77889;BME280;67082;41.704;44.768;2023-06-26T08:10:08;94986.81;;;27.06;40.62
77889;BME280;67082;41.704;44.768;2023-06-26T08:12:37;94992.50;;;27.06;40.52
77889;BME280;67082;41.704;44.768;2023-06-26T08:15:09;94991.00;;;27.05;40.27
77889;BME280;67082;41.704;44.768;2023-06-26T08:17:37;94978.66;;;27.10;40.54
77889;BME280;67082;41.704;44.768;2023-06-26T08:20:06;94984.91;;;27.16;39.59
77889;BME280;67082;41.704;44.768;2023-06-26T08:22:37;94976.53;;;27.18;40.33
77889;BME280;67082;41.704;44.768;2023-06-26T08:25:05;94980.31;;;27.21;39.42
77889;BME280;67082;41.704;44.768;2023-06-26T08:27:34;94978.41;;;27.16;39.18
77889;BME280;67082;41.704;44.768;2023-06-26T08:30:07;94980.28;;;27.28;39.25
77889;BME280;67082;41.704;44.768;2023-06-26T08:33:10;94975.50;;;27.31;39.55
77889;BME280;67082;41.704;44.768;2023-06-26T08:35:40;94976.84;;;27.30;40.60
77889;BME280;67082;41.704;44.768;2023-06-26T08:38:08;94976.25;;;27.31;39.85
77889;BME280;67082;41.704;44.768;2023-06-26T08:40:36;94976.78;;;27.37;39.70
77889;BME280;67082;41.704;44.768;2023-06-26T08:43:07;94969.94;;;27.40;40.52
77889;BME280;67082;41.704;44.768;2023-06-26T08:45:35;94969.53;;;27.44;40.41
77889;BME280;67082;41.704;44.768;2023-06-26T08:48:07;94970.31;;;27.44;41.29
77889;BME280;67082;41.704;44.768;2023-06-26T08:50:38;94962.28;;;27.50;40.74
77889;BME280;67082;41.704;44.768;2023-06-26T08:53:55;94972.16;;;27.49;40.69
77889;BME280;67082;41.704;44.768;2023-06-26T08:55:59;94957.94;;;27.49;40.82
77889;BME280;67082;41.704;44.768;2023-06-26T08:58:28;94957.16;;;27.49;39.96
77889;BME280;67082;41.704;44.768;2023-06-26T09:00:57;94950.50;;;27.54;40.37
77889;BME280;67082;41.704;44.768;2023-06-26T09:03:26;94947.38;;;27.59;40.26
77889;BME280;67082;41.704;44.768;2023-06-26T09:05:55;94952.16;;;27.57;40.53
77889;BME280;67082;41.704;44.768;2023-06-26T09:08:23;94937.19;;;27.56;40.28
77889;BME280;67082;41.704;44.768;2023-06-26T09:10:51;94942.47;;;27.60;40.97
77889;BME280;67082;41.704;44.768;2023-06-26T09:13:20;94942.81;;;27.64;39.81
77889;BME280;67082;41.704;44.768;2023-06-26T09:15:57;94929.91;;;27.63;39.77
77889;BME280;67082;41.704;44.768;2023-06-26T09:18:27;94936.53;;;27.65;39.73
77889;BME280;67082;41.704;44.768;2023-06-26T09:21:21;94932.16;;;27.64;38.96
77889;BME280;67082;41.704;44.768;2023-06-26T09:40:50;94919.22;;;27.71;37.33
77889;BME280;67082;41.704;44.768;2023-06-26T09:43:19;94917.28;;;27.73;36.69
77889;BME280;67082;41.704;44.768;2023-06-26T09:45:47;94919.94;;;27.71;36.96
77889;BME280;67082;41.704;44.768;2023-06-26T09:48:16;94915.94;;;27.74;37.15
77889;BME280;67082;41.704;44.768;2023-06-26T09:50:46;94916.69;;;27.74;36.81
77889;BME280;67082;41.704;44.768;2023-06-26T09:53:35;94911.75;;;27.75;36.04
77889;BME280;67082;41.704;44.768;2023-06-26T09:56:08;94903.97;;;27.76;36.96
77889;BME280;67082;41.704;44.768;2023-06-26T09:58:44;94898.72;;;27.72;35.88
77889;BME280;67082;41.704;44.768;2023-06-26T10:01:13;94889.97;;;27.70;35.97
77889;BME280;67082;41.704;44.768;2023-06-26T10:03:42;94891.03;;;27.82;35.95
77889;BME280;67082;41.704;44.768;2023-06-26T10:06:12;94886.50;;;27.79;36.10
77889;BME280;67082;41.704;44.768;2023-06-26T10:08:41;94895.06;;;27.96;35.40
77889;BME280;67082;41.704;44.768;2023-06-26T10:11:16;94909.63;;;28.00;35.13
77889;BME280;67082;41.704;44.768;2023-06-26T10:13:47;94900.84;;;28.06;34.94
77889;BME280;67082;41.704;44.768;2023-06-26T10:16:37;94895.72;;;28.04;35.10
77889;BME280;67082;41.704;44.768;2023-06-26T10:19:08;94888.94;;;28.00;32.97
77889;BME280;67082;41.704;44.768;2023-06-26T10:21:38;94876.88;;;27.92;32.95
77889;BME280;67082;41.704;44.768;2023-06-26T10:24:10;94862.53;;;27.82;34.61
77889;BME280;67082;41.704;44.768;2023-06-26T10:26:44;94860.63;;;27.85;33.66
77889;BME280;67082;41.704;44.768;2023-06-26T10:29:14;94866.09;;;27.90;34.71
77889;BME280;67082;41.704;44.768;2023-06-26T10:31:49;94865.41;;;27.99;33.35
77889;BME280;67082;41.704;44.768;2023-06-26T10:34:18;94865.66;;;28.11;33.50
77889;BME280;67082;41.704;44.768;2023-06-26T10:36:47;94864.97;;;28.02;32.46
77889;BME280;67082;41.704;44.768;2023-06-26T10:39:19;94857.53;;;28.07;32.50
77889;BME280;67082;41.704;44.768;2023-06-26T10:41:47;94848.81;;;28.05;33.26
77889;BME280;67082;41.704;44.768;2023-06-26T10:44:43;94852.00;;;28.09;32.33
77889;BME280;67082;41.704;44.768;2023-06-26T10:47:29;94840.16;;;28.13;32.99
77889;BME280;67082;41.704;44.768;2023-06-26T10:55:43;94836.66;;;28.22;35.25
77889;BME280;67082;41.704;44.768;2023-06-26T11:04:03;94829.19;;;28.26;33.33
77889;BME280;67082;41.704;44.768;2023-06-26T11:06:32;94818.28;;;28.32;34.07
77889;BME280;67082;41.704;44.768;2023-06-26T11:09:06;94817.69;;;28.33;34.46
77889;BME280;67082;41.704;44.768;2023-06-26T11:14:24;94812.72;;;28.51;35.75
77889;BME280;67082;41.704;44.768;2023-06-26T11:16:55;94808.03;;;28.46;35.78
77889;BME280;67082;41.704;44.768;2023-06-26T11:19:27;94804.59;;;28.48;35.63
77889;BME280;67082;41.704;44.768;2023-06-26T11:22:02;94802.03;;;28.42;35.54
77889;BME280;67082;41.704;44.768;2023-06-26T11:24:32;94802.31;;;28.46;36.27
77889;BME280;67082;41.704;44.768;2023-06-26T11:27:01;94805.06;;;28.53;36.53
77889;BME280;67082;41.704;44.768;2023-06-26T11:29:30;94796.09;;;28.57;36.05
77889;BME280;67082;41.704;44.768;2023-06-26T11:32:03;94795.94;;;28.55;35.68
77889;BME280;67082;41.704;44.768;2023-06-26T11:34:34;94797.59;;;28.58;36.09
77889;BME280;67082;41.704;44.768;2023-06-26T11:37:03;94789.78;;;28.58;36.16
77889;BME280;67082;41.704;44.768;2023-06-26T11:39:31;94797.47;;;28.65;35.73
77889;BME280;67082;41.704;44.768;2023-06-26T11:42:00;94797.66;;;28.67;36.29
77889;BME280;67082;41.704;44.768;2023-06-26T11:44:30;94798.25;;;28.66;36.60
77889;BME280;67082;41.704;44.768;2023-06-26T11:46:59;94785.78;;;28.62;35.66
77889;BME280;67082;41.704;44.768;2023-06-26T11:49:29;94790.84;;;28.63;35.96
77889;BME280;67082;41.704;44.768;2023-06-26T11:51:58;94783.66;;;28.62;36.35
77889;BME280;67082;41.704;44.768;2023-06-26T11:54:27;94776.31;;;28.59;36.55
77889;BME280;67082;41.704;44.768;2023-06-26T11:56:57;94772.97;;;28.53;36.05
77889;BME280;67082;41.704;44.768;2023-06-26T12:02:14;94754.19;;;28.50;36.31
77889;BME280;67082;41.704;44.768;2023-06-26T12:04:44;94765.75;;;28.52;36.50
77889;BME280;67082;41.704;44.768;2023-06-26T12:07:14;94759.19;;;28.59;35.91
77889;BME280;67082;41.704;44.768;2023-06-26T12:09:45;94758.19;;;28.64;35.38
77889;BME280;67082;41.704;44.768;2023-06-26T12:12:16;94760.84;;;28.62;35.45
77889;BME280;67082;41.704;44.768;2023-06-26T12:14:45;94755.00;;;28.60;35.45
77889;BME280;67082;41.704;44.768;2023-06-26T12:17:14;94755.63;;;28.68;35.77
77889;BME280;67082;41.704;44.768;2023-06-26T12:19:45;94754.59;;;28.73;36.05
77889;BME280;67082;41.704;44.768;2023-06-26T12:22:18;94757.00;;;28.76;35.84
77889;BME280;67082;41.704;44.768;2023-06-26T12:24:48;94743.81;;;28.81;34.84
77889;BME280;67082;41.704;44.768;2023-06-26T12:27:18;94743.50;;;28.77;35.16
77889;BME280;67082;41.704;44.768;2023-06-26T12:29:55;94738.53;;;28.77;34.24
77889;BME280;67082;41.704;44.768;2023-06-26T12:32:24;94736.34;;;28.85;34.73
77889;BME280;67082;41.704;44.768;2023-06-26T12:34:57;94737.50;;;28.82;35.53
77889;BME280;67082;41.704;44.768;2023-06-26T12:37:26;94739.31;;;28.78;35.04
77889;BME280;67082;41.704;44.768;2023-06-26T12:39:56;94734.78;;;28.75;35.48
77889;BME280;67082;41.704;44.768;2023-06-26T12:42:28;94725.94;;;28.71;36.69
77889;BME280;67082;41.704;44.768;2023-06-26T12:44:56;94737.16;;;28.69;36.59
77889;BME280;67082;41.704;44.768;2023-06-26T12:47:28;94730.13;;;28.70;35.86
77889;BME280;67082;41.704;44.768;2023-06-26T12:49:57;94722.75;;;28.67;35.63
77889;BME280;67082;41.704;44.768;2023-06-26T12:52:25;94719.00;;;28.64;34.87
77889;BME280;67082;41.704;44.768;2023-06-26T12:54:54;94710.59;;;28.66;34.04
77889;BME280;67082;41.704;44.768;2023-06-26T12:57:25;94715.69;;;28.68;34.30
77889;BME280;67082;41.704;44.768;2023-06-26T12:59:54;94709.09;;;28.65;34.68
77889;BME280;67082;41.704;44.768;2023-06-26T13:02:22;94714.19;;;28.67;35.41
77889;BME280;67082;41.704;44.768;2023-06-26T13:04:50;94711.69;;;28.71;35.60
77889;BME280;67082;41.704;44.768;2023-06-26T13:07:19;94713.63;;;28.78;35.17
77889;BME280;67082;41.704;44.768;2023-06-26T13:09:47;94708.06;;;28.70;36.28
77889;BME280;67082;41.704;44.768;2023-06-26T13:12:16;94716.63;;;28.70;35.28
77889;BME280;67082;41.704;44.768;2023-06-26T13:14:45;94705.66;;;28.67;35.47
77889;BME280;67082;41.704;44.768;2023-06-26T13:17:15;94704.00;;;28.64;34.76
77889;BME280;67082;41.704;44.768;2023-06-26T13:19:46;94705.66;;;28.67;34.29
77889;BME280;67082;41.704;44.768;2023-06-26T13:22:15;94697.69;;;28.65;35.01
77889;BME280;67082;41.704;44.768;2023-06-26T13:24:43;94691.25;;;28.65;35.54
77889;BME280;67082;41.704;44.768;2023-06-26T13:27:11;94693.22;;;28.72;36.14
77889;BME280;67082;41.704;44.768;2023-06-26T13:29:39;94685.53;;;28.65;35.53
77889;BME280;67082;41.704;44.768;2023-06-26T13:32:08;94687.50;;;28.72;34.40
77889;BME280;67082;41.704;44.768;2023-06-26T13:34:36;94688.88;;;28.71;34.42
77889;BME280;67082;41.704;44.768;2023-06-26T13:37:04;94683.16;;;28.71;34.39
77889;BME280;67082;41.704;44.768;2023-06-26T13:39:34;94681.03;;;28.62;35.28
77889;BME280;67082;41.704;44.768;2023-06-26T13:42:05;94676.38;;;28.66;35.02
77889;BME280;67082;41.704;44.768;2023-06-26T13:44:33;94671.44;;;28.67;34.86
77889;BME280;67082;41.704;44.768;2023-06-26T13:47:21;94669.34;;;28.67;35.01
77889;BME280;67082;41.704;44.768;2023-06-26T13:49:50;94666.19;;;28.63;34.46
77889;BME280;67082;41.704;44.768;2023-06-26T13:52:19;94668.25;;;28.63;34.55
77889;BME280;67082;41.704;44.768;2023-06-26T13:54:48;94657.78;;;28.75;35.64